Flight Track Log - Related Links

Times and Time Zones

All times are in EST time to prevent confusion due to time zone crossing. See the TGW275 flight status page for this flight to view local times or setup timezone preferences in your user account.

Time Position Orientation Groundspeed Altitude Reporting Facility
EST Latitude Longitude Course Direction KTS MPH feet Rate Location/Type
Mon 10:23:10 PM -30.3742 153.1202 272° West 268 308 4,100  Level Aus ATC (RADAR)
Mon 10:23:25 PM -30.3735 153.0990 272° West 259 298 4,300 3,024 Climbing Aus ATC (RADAR)
Mon 10:25:15 PM -30.4453 152.9801 235° Southwest 256 295 10,400 3,072 Climbing Aus ATC (RADAR)
Mon 10:25:30 PM -30.4587 152.9640 226° Southwest 264 304 10,700 1,200 Climbing Aus ATC (RADAR)
Mon 10:26:10 PM -30.5006 152.9154 225° Southwest 316 364 11,500 1,929 Climbing Aus ATC (RADAR)
Mon 10:26:54 PM -30.5525 152.8571 224° Southwest 345 397 13,400 3,130 Climbing Aus ATC (RADAR)
Mon 10:27:19 PM -30.5812 152.8242 225° Southwest 347 399 15,100 3,508 Climbing Aus ATC (RADAR)
Mon 10:27:59 PM -30.6271 152.7718 224° Southwest 347 399 17,200 3,150 Climbing Aus ATC (RADAR)
Mon 10:28:39 PM -30.6725 152.7194 225° Southwest 346 398 19,300 2,276 Climbing Aus ATC (RADAR)
Mon 10:30:24 PM -30.8000 152.5720 225° Southwest 382 440 22,700 1,938 Climbing Aus ATC (RADAR)
Mon 10:30:49 PM -30.8321 152.5356 224° Southwest 388 447 23,500 1,886 Climbing Aus ATC (RADAR)
Mon 10:30:59 PM -30.8452 152.5206 224° Southwest 391 450 23,800 1,867 Climbing Aus ATC (RADAR)
Mon 10:32:19 PM -30.9510 152.4005 224° Southwest 401 461 26,300 2,139 Climbing Aus ATC (RADAR)
Mon 10:32:54 PM -30.9983 152.3468 224° Southwest 404 465 27,900 2,625 Climbing Aus ATC (RADAR)
Mon 10:33:39 PM -31.0545 152.2823 225° Southwest 375 432 29,800 1,000 Climbing Aus ATC (RADAR)
Mon 10:34:48 PM -31.1384 152.1853 225° Southwest 370 426 29,800  Level Aus ATC (RADAR)
Mon 10:35:23 PM -31.1817 152.1358 224° Southwest 375 432 29,800  Level Aus ATC (RADAR)
Mon 10:35:43 PM -31.2063 152.1077 224° Southwest 374 430 29,800  Level Aus ATC (RADAR)
Mon 10:36:23 PM -31.2552 152.0513 225° Southwest 373 429 29,800  Level Aus ATC (RADAR)
Mon 10:37:03 PM -31.3042 151.9942 225° Southwest 375 432 29,800  Level Aus ATC (RADAR)
Mon 10:37:53 PM -31.3663 151.9232 224° Southwest 377 434 29,800  Level Aus ATC (RADAR)
Mon 10:38:34 PM -31.4160 151.8652 225° Southwest 380 437 29,800  Level Aus ATC (RADAR)
Mon 10:39:18 PM -31.4802 151.8082 217° Southwest 388 447 29,800  Level Aus ATC (RADAR)
Mon 10:40:18 PM -31.5642 151.7356 216° Southwest 373 429 29,800  Level Aus ATC (RADAR)
Mon 10:40:46 PM -31.6007 151.7036 217° Southwest 358 412 29,800  Level Aus ATC (RADAR)
Mon 10:41:23 PM -31.6517 151.6590 217° Southwest 366 421 29,800 308 Level Aus ATC (RADAR)
Mon 10:41:25 PM -31.6544 151.6567 217° Southwest 371 427 30,000 273 Climbing FlightAware ADS-B (YPLB)
Mon 10:42:07 PM -31.7149 151.6037 217° Southwest 383 441 30,000  Level FlightAware ADS-B (YPLB)
Mon 10:42:48 PM -31.7714 151.5549 216° Southwest 377 434 30,000  Level FlightAware ADS-B (YPLB)
Mon 10:43:03 PM -31.7930 151.5361 217° Southwest 379 436 30,000 -267 Level FlightAware ADS-B
Mon 10:43:33 PM -31.8346 151.4992 217° Southwest 379 436 29,800  Descending Aus ATC (RADAR)
Mon 10:43:47 PM -31.8554 151.4819 217° Southwest 360 414 30,000 222 Climbing FlightAware ADS-B (YPLB)
Mon 10:44:27 PM -31.9086 151.4350 217° Southwest 362 417 30,000  Level FlightAware ADS-B (YPLB)
Mon 10:45:06 PM -31.9631 151.3862 217° Southwest 386 444 30,000 -257 Level FlightAware ADS-B (YPLB)
Mon 10:45:37 PM -32.0064 151.3479 217° Southwest 388 447 29,700  Descending Aus ATC (RADAR)
Mon 10:45:47 PM -32.0220 151.3348 217° Southwest 386 444 30,000 360 Climbing FlightAware ADS-B (YPLB)
Mon 10:46:27 PM -32.0778 151.2858 217° Southwest 385 443 30,000  Level FlightAware ADS-B (YPLB)
Mon 10:47:06 PM -32.1356 151.2349 217° Southwest 386 444 30,000 -240 Level FlightAware ADS-B (YPLB)
Mon 10:47:42 PM -32.1846 151.1911 217° Southwest 384 442 29,700  Descending Aus ATC (RADAR)
Mon 10:47:48 PM -32.1939 151.1833 217° Southwest 384 442 30,000 -136 Climbing FlightAware ADS-B (YPLB)
Mon 10:48:26 PM -32.2465 151.1370 217° Southwest 372 428 29,600 -825 Descending FlightAware ADS-B (YPLB)
Mon 10:49:08 PM -32.3044 151.0856 217° Southwest 373 429 28,900 -1,125 Descending FlightAware ADS-B (YPLB)
Mon 10:49:46 PM -32.3582 151.0384 217° Southwest 376 433 28,100 -1,519 Descending FlightAware ADS-B (YPLB)
Mon 10:50:27 PM -32.4180 150.9976 210° Southwest 377 434 26,900 -1,852 Descending FlightAware ADS-B (YPLB)
Mon 10:51:07 PM -32.4847 150.9664 202° Southwest 383 441 25,600 -1,926 Descending FlightAware ADS-B (YPLB)
Mon 10:51:48 PM -32.5571 150.9469 193° South 386 444 24,300 -2,000 Descending FlightAware ADS-B (YPLB)
Mon 10:52:49 PM -32.6641 150.9429 193° South 381 438 22,200 -1,837 Descending Aus ATC (RADAR)
Mon 10:53:26 PM -32.7309 150.9537 193° South 376 433 21,300 -1,775 Descending FlightAware ADS-B (YPLB)
Mon 10:54:00 PM -32.7851 150.9636 193° South 373 429 20,100 -1,857 Descending Aus ATC (RADAR)
Mon 10:54:08 PM -32.8009 150.9662 193° South 368 423 20,000 -1,750 Descending FlightAware ADS-B (YPLB)
Mon 10:54:48 PM -32.8674 150.9780 172° South 368 423 18,700 -2,113 Descending FlightAware ADS-B (YPLB)
Mon 10:55:19 PM -32.9200 150.9875 171° South 369 425 17,500 -2,476 Descending FlightAware ADS-B
Mon 10:55:51 PM -32.9744 150.9972 171° South 357 411 16,100 -2,057 Descending Aus ATC (RADAR)
Mon 10:55:54 PM -32.9784 150.9978 171° South 357 411 16,300 -1,622 Climbing FlightAware ADS-B (KCLL)
Mon 10:56:28 PM -33.0379 151.0085 171° South 363 418 15,100 -2,055 Descending FlightAware ADS-B (YPLB)
Mon 10:57:07 PM -33.1015 151.0200 171° South 363 418 13,800 -2,049 Descending FlightAware ADS-B (YPLB)
Mon 10:57:50 PM -33.1705 151.0323 172° South 356 410 12,300 -2,025 Descending FlightAware ADS-B
Mon 10:58:27 PM -33.2325 151.0433 172° South 345 397 11,100 -1,562 Descending FlightAware ADS-B (YPLB)
Mon 10:59:03 PM -33.2858 151.0534 171° South 325 374 10,400 -1,105 Descending FlightAware ADS-B
Mon 10:59:43 PM -33.3413 151.0643 171° South 304 350 9,700 -1,273 Descending FlightAware ADS-B
Mon 11:00:09 PM -33.3777 151.0618 183° South 298 343 9,000 -1,375 Descending FlightAware ADS-B
Mon 11:00:31 PM -33.4084 151.0566 188° South 293 337 8,600 -789 Descending FlightAware ADS-B
Mon 11:00:47 PM -33.4280 151.0548 184° South 304 350 8,500 -333 Descending FlightAware ADS-B
Mon 11:01:07 PM -33.4590 151.0616 170° South 303 349 8,400 -833 Descending FlightAware ADS-B (YPLB)
Mon 11:01:23 PM -33.4802 151.0672 168° South 301 346 8,000 -1,636 Descending FlightAware ADS-B
Mon 11:01:40 PM -33.5035 151.0734 167° South 300 345 7,500 -1,610 Descending FlightAware ADS-B
Mon 11:02:04 PM -33.5354 151.0818 168° South 300 345 6,900 -1,750 Descending FlightAware ADS-B
Mon 11:02:28 PM -33.5710 151.0907 168° South 301 346 6,100 -1,625 Descending FlightAware ADS-B (YPLB)
Mon 11:02:52 PM -33.5991 151.0979 168° South 293 337 5,600 -923 Descending FlightAware ADS-B
Mon 11:03:07 PM -33.6211 151.1036 168° South 283 326 5,500 -514 Descending FlightAware ADS-B (YPLB)
Mon 11:03:27 PM -33.6466 151.1100 168° South 267 307 5,300 -500 Descending FlightAware ADS-B (YPLB)
Mon 11:03:43 PM -33.6651 151.1148 168° South 258 297 5,200 -649 Descending FlightAware ADS-B
Mon 11:04:04 PM -33.6883 151.1208 168° South 246 283 4,900 -973 Descending FlightAware ADS-B
Mon 11:04:20 PM -33.7056 151.1252 168° South 236 272 4,600 -1,125 Descending FlightAware ADS-B (KCLL)
Mon 11:04:36 PM -33.7232 151.1296 168° South 241 277 4,300 -857 Descending FlightAware ADS-B
Mon 11:04:55 PM -33.7435 151.1349 168° South 232 267 4,100 -750 Descending FlightAware ADS-B
Mon 11:05:16 PM -33.7657 151.1407 168° South 215 247 3,800 -857 Descending FlightAware ADS-B
Mon 11:05:37 PM -33.7844 151.1456 168° South 200 230 3,500 -1,050 Descending FlightAware ADS-B
Mon 11:05:56 PM -33.8020 151.1501 168° South 199 229 3,100 -1,161 Descending FlightAware ADS-B
Mon 11:06:08 PM -33.8131 151.1529 168° South 196 226 2,900 -889 Descending FlightAware ADS-B (YPLB)
Mon 11:06:23 PM -33.8261 151.1563 168° South 181 208 2,700 -900 Descending FlightAware ADS-B (YSSY / SYD)
Mon 11:06:28 PM -33.8302 151.1574 167° South 186 214 2,600 -857 Descending FlightAware ADS-B (YPLB)
Mon 11:06:44 PM -33.8432 151.1608 168° South 165 190 2,400 -938 Descending FlightAware ADS-B (KCLL)
Mon 11:07:00 PM -33.8538 151.1634 168° South 177 204 2,100 -818 Descending FlightAware ADS-B
Mon 11:07:06 PM -33.8596 151.1649 168° South 165 190 2,100 -783 Level FlightAware ADS-B (KCLL)
Mon 11:07:23 PM -33.8730 151.1684 168° South 169 194 1,800 -1,091 Descending FlightAware ADS-B
Mon 11:07:28 PM -33.8767 151.1694 168° South 154 177 1,700 -720 Descending FlightAware ADS-B (KCLL)
Mon 11:07:48 PM -33.8912 151.1731 168° South 149 171 1,500 -621 Descending FlightAware ADS-B
Mon 11:07:57 PM -33.8981 151.1749 168° South 147 169 1,400 -750 Descending FlightAware ADS-B
Mon 11:08:20 PM -33.9090 151.1778 168° South 137 158 1,100 -698 Descending FlightAware ADS-B
Mon 11:08:40 PM -33.9229 151.1814 168° South 130 150 900 -480 Descending FlightAware ADS-B
Mon 11:08:45 PM -33.9256 151.1821 167° South 133 153 900 -667 Level FlightAware ADS-B (KCLL)
Mon 11:09:07 PM -33.9397 151.1857 168° South 132 152 600 -818 Descending FlightAware ADS-B
Mon 11:09:29 PM -33.9529 151.1891 168° South 119 137 300 -818 Descending FlightAware ADS-B (KCLL)

Login

Don't have an account? Register now (free) for customized features, flight alerts, and more!